createdAt,value
2017-11-14T00:00:46.815Z,11.32
2017-11-14T00:03:14.567Z,10.82
2017-11-14T00:05:42.363Z,12.02
2017-11-14T00:08:10.156Z,12.18
2017-11-14T00:10:38.667Z,12.15
2017-11-14T00:13:06.461Z,11.98
2017-11-14T00:15:34.427Z,14.05
2017-11-14T00:18:02.187Z,13.25
2017-11-14T00:20:29.933Z,12.65
2017-11-14T00:22:57.722Z,12.43
2017-11-14T00:25:25.577Z,11.93
2017-11-14T00:27:53.443Z,13.80
2017-11-14T00:30:21.309Z,12.88
2017-11-14T00:32:49.050Z,13.60
2017-11-14T00:35:16.818Z,12.35
2017-11-14T00:37:44.634Z,13.45
2017-11-14T00:40:13.142Z,12.02
2017-11-14T00:42:40.887Z,11.48
2017-11-14T00:45:08.675Z,12.55
2017-11-14T00:47:36.557Z,12.23
2017-11-14T00:50:04.307Z,9.60
2017-11-14T00:52:32.182Z,11.55
2017-11-14T00:55:00.050Z,12.70
2017-11-14T00:57:27.799Z,11.82
2017-11-14T00:59:55.584Z,9.65
2017-11-14T01:02:23.335Z,11.73
2017-11-14T01:04:51.079Z,10.65
2017-11-14T01:07:18.946Z,10.02
2017-11-14T01:09:46.690Z,9.75
2017-11-14T01:12:14.439Z,9.75
2017-11-14T01:14:42.224Z,8.40
2017-11-14T01:17:09.972Z,8.43
2017-11-14T01:19:37.773Z,8.23
2017-11-14T01:22:06.449Z,6.95
2017-11-14T01:24:34.312Z,9.07
2017-11-14T01:27:02.056Z,8.55
2017-11-14T01:29:29.938Z,9.60
2017-11-14T01:31:57.680Z,8.40
2017-11-14T01:34:25.431Z,8.55
2017-11-14T01:36:53.500Z,8.95
2017-11-14T01:39:21.263Z,9.10
2017-11-14T01:41:49.054Z,9.40
2017-11-14T01:44:16.858Z,8.40
2017-11-14T01:46:45.384Z,9.48
2017-11-14T01:49:13.147Z,10.35
2017-11-14T01:51:40.935Z,10.07
2017-11-14T01:54:08.683Z,9.02
2017-11-14T01:56:36.440Z,9.65
2017-11-14T01:59:04.223Z,8.77
2017-11-14T02:01:32.731Z,9.38
2017-11-14T02:04:00.480Z,9.18
2017-11-14T02:06:28.506Z,9.68
2017-11-14T02:08:56.260Z,9.73
2017-11-14T02:11:24.019Z,9.65
2017-11-14T02:13:51.813Z,9.68
2017-11-14T02:16:19.556Z,9.63
2017-11-14T02:18:48.060Z,9.43
2017-11-14T02:21:15.855Z,9.68
2017-11-14T02:23:43.613Z,10.18
2017-11-14T02:26:11.422Z,10.98
2017-11-14T02:28:39.250Z,10.35
2017-11-14T02:31:07.024Z,10.45
2017-11-14T02:33:34.796Z,11.50
2017-11-14T02:36:02.674Z,11.63
2017-11-14T02:38:30.430Z,10.45
2017-11-14T02:40:58.178Z,10.20
2017-11-14T02:43:25.990Z,11.05
2017-11-14T02:45:54.520Z,9.27
2017-11-14T02:48:22.279Z,11.40
2017-11-14T02:50:50.079Z,9.70
2017-11-14T02:53:17.851Z,10.10
2017-11-14T02:55:46.510Z,12.48
2017-11-14T02:58:14.294Z,11.35
2017-11-14T03:00:42.134Z,13.18
2017-11-14T03:03:09.879Z,10.82
2017-11-14T03:05:37.660Z,11.85
2017-11-14T03:08:05.417Z,12.27
2017-11-14T03:10:33.282Z,11.27
2017-11-14T03:13:01.121Z,12.45
2017-11-14T03:15:28.895Z,13.05
2017-11-14T03:17:56.655Z,11.70
2017-11-14T03:20:24.443Z,12.73
2017-11-14T03:22:52.295Z,10.65
2017-11-14T03:25:20.058Z,13.00
2017-11-14T03:27:47.843Z,12.45
2017-11-14T03:30:16.376Z,13.43
2017-11-14T03:32:44.133Z,12.20
2017-11-14T03:35:11.920Z,15.20
2017-11-14T03:37:39.722Z,14.10
2017-11-14T03:40:08.226Z,13.40
2017-11-14T03:42:36.127Z,13.25
2017-11-14T03:45:03.892Z,13.02
2017-11-14T03:47:31.649Z,13.07
2017-11-14T03:49:59.440Z,13.25
2017-11-14T03:52:27.954Z,14.07
2017-11-14T03:54:55.753Z,15.02
2017-11-14T03:57:23.623Z,12.50
2017-11-14T03:59:51.485Z,14.45
2017-11-14T04:02:20.064Z,13.50
2017-11-14T04:04:47.862Z,12.60
2017-11-14T04:07:16.370Z,13.50
2017-11-14T04:09:44.144Z,12.10
2017-11-14T04:12:12.033Z,13.65
2017-11-14T04:14:39.801Z,13.18
2017-11-14T04:17:07.548Z,13.55
2017-11-14T04:19:35.332Z,14.40
2017-11-14T04:22:03.079Z,13.88
2017-11-14T04:24:30.846Z,16.37
2017-11-14T04:26:58.703Z,15.93
2017-11-14T04:29:26.444Z,15.43
2017-11-14T04:31:54.221Z,14.07
2017-11-14T04:34:22.008Z,13.65
2017-11-14T04:36:49.756Z,17.10
2017-11-14T04:39:17.612Z,15.90
2017-11-14T04:41:45.483Z,16.48
2017-11-14T04:44:13.232Z,15.73
2017-11-14T04:46:40.979Z,16.85
2017-11-14T04:49:08.773Z,15.65
2017-11-14T04:51:36.524Z,16.00
2017-11-14T04:54:05.039Z,13.38
2017-11-14T04:56:33.599Z,14.40
2017-11-14T04:59:01.415Z,14.38
2017-11-14T05:01:29.312Z,15.30
2017-11-14T05:03:57.095Z,16.08
2017-11-14T05:06:24.842Z,15.75
2017-11-14T05:08:52.600Z,15.50
2017-11-14T05:11:20.415Z,13.55
2017-11-14T05:13:48.166Z,17.25
2017-11-14T05:16:15.907Z,14.23
2017-11-14T05:18:44.460Z,14.48
2017-11-14T05:21:12.204Z,16.00
2017-11-14T05:23:39.966Z,16.02
2017-11-14T05:26:07.847Z,15.82
2017-11-14T05:28:35.713Z,14.60
2017-11-14T05:31:03.474Z,15.65
2017-11-14T05:33:32.032Z,16.27
2017-11-14T05:35:59.786Z,13.18
2017-11-14T05:38:27.577Z,15.10
2017-11-14T05:40:55.361Z,14.43
2017-11-14T05:43:23.110Z,15.07
2017-11-14T05:45:50.966Z,13.07
2017-11-14T05:48:18.755Z,13.70
2017-11-14T05:50:47.261Z,12.75
2017-11-14T05:53:15.041Z,13.15
2017-11-14T05:55:42.834Z,14.40
2017-11-14T05:58:10.602Z,15.40
2017-11-14T06:00:38.364Z,16.42
2017-11-14T06:03:06.155Z,17.10
2017-11-14T06:05:34.677Z,20.12
2017-11-14T06:08:02.426Z,18.98
2017-11-14T06:10:30.235Z,15.77
2017-11-14T06:12:57.983Z,20.00
2017-11-14T06:15:25.740Z,19.30
2017-11-14T06:17:54.338Z,18.27
2017-11-14T06:20:22.085Z,18.98
2017-11-14T06:22:49.835Z,19.10
2017-11-14T06:25:17.636Z,20.52
2017-11-14T06:27:46.177Z,18.98
2017-11-14T06:30:13.933Z,17.25
2017-11-14T06:32:41.763Z,19.10
2017-11-14T06:35:09.519Z,13.40
2017-11-14T06:37:38.260Z,14.38
2017-11-14T06:40:06.054Z,12.90
2017-11-14T06:42:34.569Z,14.50
2017-11-14T06:45:02.339Z,11.25
2017-11-14T06:47:30.132Z,11.18
2017-11-14T06:49:57.992Z,10.48
2017-11-14T06:52:25.824Z,12.35
2017-11-14T06:54:53.687Z,12.18
2017-11-14T06:57:21.456Z,13.57
2017-11-14T06:59:49.243Z,12.90
2017-11-14T07:02:17.026Z,13.25
2017-11-14T07:04:44.771Z,12.37
2017-11-14T07:07:12.520Z,11.90
2017-11-14T07:09:40.302Z,14.18
2017-11-14T07:12:08.052Z,13.35
2017-11-14T07:14:35.814Z,15.20
2017-11-14T07:17:03.599Z,12.15
2017-11-14T07:19:32.123Z,10.30
2017-11-14T07:21:59.879Z,12.77
2017-11-14T07:24:27.695Z,12.95
2017-11-14T07:26:55.451Z,13.13
2017-11-14T07:29:23.254Z,12.73
2017-11-14T07:31:51.048Z,13.57
2017-11-14T07:34:18.839Z,12.18
2017-11-14T07:36:46.592Z,13.15
2017-11-14T07:39:14.395Z,10.43
2017-11-14T07:41:42.188Z,11.98
2017-11-14T07:44:09.938Z,13.02
2017-11-14T07:46:37.735Z,12.15
2017-11-14T07:49:06.250Z,12.13
2017-11-14T07:51:34.779Z,11.82
2017-11-14T07:54:02.571Z,10.90
2017-11-14T07:56:30.329Z,12.27
2017-11-14T07:58:58.075Z,12.52
2017-11-14T08:01:25.858Z,12.70
2017-11-14T08:03:53.627Z,12.98
2017-11-14T08:06:21.383Z,15.50
2017-11-14T08:08:49.171Z,11.55
2017-11-14T08:11:17.809Z,9.82
2017-11-14T08:13:45.562Z,10.32
2017-11-14T08:16:13.344Z,9.43
2017-11-14T08:18:41.122Z,10.18
2017-11-14T08:21:09.637Z,11.20
2017-11-14T08:23:37.542Z,10.10
2017-11-14T08:26:05.291Z,11.32
2017-11-14T08:28:33.063Z,11.85
2017-11-14T08:31:00.899Z,10.18
2017-11-14T08:33:28.697Z,9.48
2017-11-14T08:35:56.551Z,8.27
2017-11-14T08:38:24.339Z,8.35
2017-11-14T08:40:52.879Z,10.52
2017-11-14T08:43:20.665Z,10.27
2017-11-14T08:45:48.543Z,7.90
2017-11-14T08:48:16.385Z,9.00
2017-11-14T08:50:44.250Z,9.20
2017-11-14T08:53:12.111Z,8.30
2017-11-14T08:55:39.875Z,8.60
2017-11-14T08:58:07.627Z,8.85
2017-11-14T09:00:36.187Z,8.55
2017-11-14T09:03:03.935Z,7.40
2017-11-14T09:05:31.700Z,12.98
2017-11-14T09:07:59.478Z,9.27
2017-11-14T09:10:27.248Z,9.65
2017-11-14T09:12:55.128Z,12.80
2017-11-14T09:15:22.992Z,11.12
2017-11-14T09:17:50.857Z,23.80
2017-11-14T09:20:18.612Z,10.50
2017-11-14T09:22:46.416Z,12.50
2017-11-14T09:25:14.938Z,9.45
2017-11-14T09:27:42.704Z,10.38
2017-11-14T09:30:10.586Z,8.65
2017-11-14T09:32:38.334Z,9.63
2017-11-14T09:35:06.105Z,12.60
2017-11-14T09:37:33.896Z,7.87
2017-11-14T09:40:01.736Z,8.82
2017-11-14T09:42:29.500Z,10.70
2017-11-14T09:44:57.559Z,7.55
2017-11-14T09:47:25.302Z,9.05
2017-11-14T09:49:53.068Z,10.80
2017-11-14T09:52:20.875Z,9.30
2017-11-14T09:54:49.436Z,8.07
2017-11-14T09:57:17.266Z,9.80
2017-11-14T09:59:45.175Z,8.50
2017-11-14T10:02:12.952Z,8.55
2017-11-14T10:04:41.503Z,9.80
2017-11-14T10:07:09.295Z,9.15
2017-11-14T10:09:37.820Z,9.65
2017-11-14T10:12:05.627Z,9.65
2017-11-14T10:14:33.424Z,10.60
2017-11-14T10:17:01.180Z,8.48
2017-11-14T10:19:28.948Z,9.30
2017-11-14T10:21:56.742Z,9.15
2017-11-14T10:24:24.491Z,8.60
2017-11-14T10:26:52.246Z,9.75
2017-11-14T10:29:20.141Z,8.43
2017-11-14T10:31:48.004Z,7.97
2017-11-14T10:34:15.745Z,9.23
2017-11-14T10:36:43.660Z,7.10
2017-11-14T10:39:12.277Z,9.00
2017-11-14T10:41:40.039Z,8.70
2017-11-14T10:44:07.939Z,8.82
2017-11-14T10:46:35.692Z,7.60
2017-11-14T10:49:03.461Z,6.70
2017-11-14T10:51:31.327Z,6.00
2017-11-14T10:53:59.068Z,5.72
2017-11-14T10:56:26.821Z,6.55
2017-11-14T10:58:54.613Z,6.25
2017-11-14T11:01:22.368Z,6.70
2017-11-14T11:03:50.112Z,6.53
2017-11-14T11:06:17.906Z,5.30
2017-11-14T11:08:45.760Z,6.68
2017-11-14T11:11:13.511Z,7.12
2017-11-14T11:13:41.303Z,8.35
2017-11-14T11:16:09.053Z,7.50
2017-11-14T11:18:36.815Z,10.07
2017-11-14T11:21:04.587Z,7.35
2017-11-14T11:23:32.357Z,6.62
2017-11-14T11:26:01.012Z,7.00
2017-11-14T11:28:28.877Z,7.12
2017-11-14T11:30:56.648Z,7.00
2017-11-14T11:33:24.401Z,6.37
2017-11-14T11:35:52.207Z,7.82
2017-11-14T11:38:20.846Z,7.10
2017-11-14T11:40:48.715Z,7.40
2017-11-14T11:43:16.508Z,7.40
2017-11-14T11:45:45.035Z,7.75
2017-11-14T11:48:12.808Z,6.57
2017-11-14T11:50:40.677Z,8.52
2017-11-14T11:53:08.516Z,7.82
2017-11-14T11:55:36.404Z,7.40
2017-11-14T11:58:04.200Z,9.27
2017-11-14T12:00:32.724Z,9.73
2017-11-14T12:03:00.516Z,9.48
2017-11-14T12:05:28.324Z,8.40
2017-11-14T12:07:56.091Z,8.45
2017-11-14T12:10:23.876Z,9.30
2017-11-14T12:12:51.680Z,9.88
2017-11-14T12:15:19.443Z,10.70
2017-11-14T12:17:47.969Z,9.35
2017-11-14T12:20:15.776Z,10.50
2017-11-14T12:22:44.316Z,10.10
2017-11-14T12:25:12.076Z,10.18
2017-11-14T12:27:39.923Z,11.02
2017-11-14T12:30:07.693Z,9.45
2017-11-14T12:32:35.470Z,10.90
2017-11-14T12:35:03.356Z,10.52
2017-11-14T12:37:31.115Z,11.45
2017-11-14T12:39:58.979Z,11.70
2017-11-14T12:42:26.845Z,10.85
2017-11-14T12:44:54.592Z,10.55
2017-11-14T12:47:22.350Z,10.80
2017-11-14T12:49:50.136Z,9.98
2017-11-14T12:52:18.708Z,12.75
2017-11-14T12:54:46.572Z,12.90
2017-11-14T12:57:14.386Z,12.02
2017-11-14T12:59:42.154Z,11.98
2017-11-14T13:02:09.965Z,10.00
2017-11-14T13:04:37.768Z,10.05
2017-11-14T13:07:05.528Z,11.38
2017-11-14T13:09:33.298Z,10.75
2017-11-14T13:12:01.102Z,9.82
2017-11-14T13:14:28.857Z,12.68
2017-11-14T13:16:56.735Z,11.10
2017-11-14T13:19:24.599Z,12.85
2017-11-14T13:21:52.358Z,13.57
2017-11-14T13:24:20.106Z,11.30
2017-11-14T13:26:47.898Z,12.80
2017-11-14T13:29:15.654Z,11.18
2017-11-14T13:31:43.424Z,12.95
2017-11-14T13:34:11.233Z,13.00
2017-11-14T13:36:39.237Z,13.18
2017-11-14T13:39:07.022Z,13.55
2017-11-14T13:41:34.852Z,11.75
2017-11-14T13:44:02.608Z,13.43
2017-11-14T13:46:30.364Z,13.52
2017-11-14T13:48:58.160Z,12.85
2017-11-14T13:51:25.913Z,11.23
2017-11-14T13:53:53.672Z,12.30
2017-11-14T13:56:21.469Z,12.52
2017-11-14T13:58:49.228Z,11.38
2017-11-14T14:01:17.743Z,10.35
2017-11-14T14:03:45.548Z,12.00
2017-11-14T14:06:13.309Z,12.82
2017-11-14T14:08:41.064Z,11.27
2017-11-14T14:11:08.874Z,10.25
2017-11-14T14:13:36.629Z,11.48
2017-11-14T14:16:04.444Z,11.82
2017-11-14T14:18:32.316Z,11.68
2017-11-14T14:21:00.075Z,11.10
2017-11-14T14:23:27.951Z,9.70
2017-11-14T14:25:55.800Z,10.38
2017-11-14T14:28:23.661Z,12.13
2017-11-14T14:30:51.408Z,14.65
2017-11-14T14:33:19.208Z,12.05
2017-11-14T14:35:46.959Z,10.50
2017-11-14T14:38:14.811Z,14.38
2017-11-14T14:40:42.675Z,15.55
2017-11-14T14:43:10.601Z,13.73
2017-11-14T14:45:38.352Z,12.90
2017-11-14T14:48:06.371Z,12.35
2017-11-14T14:50:34.128Z,13.07
2017-11-14T14:53:01.909Z,13.75
2017-11-14T14:55:29.756Z,13.80
2017-11-14T14:57:57.619Z,13.25
2017-11-14T15:00:25.386Z,15.77
2017-11-14T15:02:53.176Z,13.88
2017-11-14T15:05:21.828Z,12.63
2017-11-14T15:07:49.574Z,14.23
2017-11-14T15:10:17.359Z,13.60
2017-11-14T15:12:45.123Z,14.15
2017-11-14T15:15:12.875Z,13.20
2017-11-14T15:17:40.721Z,12.30
2017-11-14T15:20:08.476Z,12.30
2017-11-14T15:22:36.371Z,12.32
2017-11-14T15:25:04.171Z,14.65
2017-11-14T15:27:31.920Z,15.63
2017-11-14T15:30:00.474Z,16.77
2017-11-14T15:32:28.330Z,15.98
2017-11-14T15:34:56.111Z,17.45
2017-11-14T15:37:23.865Z,20.98
2017-11-14T15:39:51.717Z,23.00
2017-11-14T15:42:19.463Z,24.77
2017-11-14T15:44:47.222Z,25.12
2017-11-14T15:47:15.027Z,32.80
2017-11-14T15:49:43.543Z,38.15
2017-11-14T15:52:11.337Z,38.78
2017-11-14T15:54:39.133Z,31.05
2017-11-14T15:57:07.656Z,28.33
2017-11-14T15:59:35.411Z,24.98
2017-11-14T16:02:03.202Z,28.80
2017-11-14T16:04:31.715Z,31.48
2017-11-14T16:07:00.256Z,31.58
2017-11-14T16:09:28.051Z,27.95
2017-11-14T16:11:55.812Z,28.85
2017-11-14T16:14:23.570Z,26.98
2017-11-14T16:16:51.363Z,23.87
2017-11-14T16:19:19.110Z,26.05
2017-11-14T16:21:47.635Z,24.87
2017-11-14T16:24:15.425Z,24.67
2017-11-14T16:26:43.181Z,27.83
2017-11-14T16:29:11.696Z,23.65
2017-11-14T16:31:40.261Z,31.08
2017-11-14T16:34:08.106Z,24.75
2017-11-14T16:36:35.856Z,23.95
2017-11-14T16:39:03.703Z,24.90
2017-11-14T16:41:31.453Z,26.20
2017-11-14T16:43:59.212Z,25.10
2017-11-14T16:46:27.000Z,26.77
2017-11-14T16:48:54.780Z,27.33
2017-11-14T16:51:22.541Z,29.17
2017-11-14T16:53:50.347Z,34.95
2017-11-14T16:56:18.111Z,36.92
2017-11-14T16:58:45.893Z,37.88
2017-11-14T17:01:13.688Z,43.05
2017-11-14T17:03:41.443Z,53.85
2017-11-14T17:06:09.316Z,45.10
2017-11-14T17:08:37.124Z,39.42
2017-11-14T17:11:04.888Z,49.13
2017-11-14T17:13:32.640Z,40.85
2017-11-14T17:16:01.192Z,35.08
2017-11-14T17:18:28.973Z,38.95
2017-11-14T17:20:57.831Z,34.80
2017-11-14T17:23:25.628Z,34.17
2017-11-14T17:25:54.144Z,32.47
2017-11-14T17:28:21.917Z,32.53
2017-11-14T17:30:49.704Z,32.42
2017-11-14T17:33:17.468Z,34.88
2017-11-14T17:35:45.221Z,34.33
2017-11-14T17:38:13.029Z,31.12
2017-11-14T17:40:41.102Z,32.13
2017-11-14T17:43:09.850Z,30.45
2017-11-14T17:45:38.243Z,32.38
2017-11-14T17:48:06.859Z,33.90
2017-11-14T17:50:34.631Z,32.40
2017-11-14T17:53:02.421Z,33.25
2017-11-14T17:55:30.169Z,35.67
2017-11-14T17:57:57.930Z,35.65
2017-11-14T18:00:25.794Z,35.92
2017-11-14T18:02:53.668Z,36.70
2017-11-14T18:05:21.434Z,32.40
2017-11-14T18:07:49.263Z,32.72
2017-11-14T18:10:17.161Z,30.30
2017-11-14T18:12:45.020Z,27.67
2017-11-14T18:15:12.986Z,27.20
2017-11-14T18:17:40.736Z,29.27
2017-11-14T18:20:08.484Z,31.27
2017-11-14T18:22:36.376Z,30.92
2017-11-14T18:25:04.554Z,30.37
2017-11-14T18:27:32.513Z,27.50
2017-11-14T18:30:00.376Z,30.42
2017-11-14T18:32:28.243Z,34.25
2017-11-14T18:34:56.106Z,34.20
2017-11-14T18:37:23.901Z,34.67
2017-11-14T18:39:52.449Z,35.70
2017-11-14T18:42:20.310Z,32.75
2017-11-14T18:44:48.187Z,32.83
2017-11-14T18:47:16.755Z,33.97
2017-11-14T18:49:44.507Z,37.38
2017-11-14T18:52:12.381Z,42.60
2017-11-14T18:54:40.219Z,43.92
2017-11-14T18:57:08.049Z,49.33
2017-11-14T18:59:35.852Z,48.17
2017-11-14T19:02:03.599Z,43.58
2017-11-14T19:04:31.361Z,44.13
2017-11-14T19:06:59.155Z,42.00
2017-11-14T19:09:26.993Z,45.08
2017-11-14T19:11:54.833Z,44.95
2017-11-14T19:14:23.172Z,45.95
2017-11-14T19:16:52.049Z,39.60
2017-11-14T19:19:21.377Z,43.45
2017-11-14T19:21:50.026Z,46.60
2017-11-14T19:24:18.094Z,49.65
2017-11-14T19:26:46.565Z,47.83
2017-11-14T19:29:14.358Z,43.53
2017-11-14T19:31:42.108Z,42.83
2017-11-14T19:34:09.864Z,46.97
2017-11-14T19:36:37.669Z,44.67
2017-11-14T19:39:05.484Z,48.60
2017-11-14T19:41:33.238Z,51.58
2017-11-14T19:44:01.060Z,50.20
2017-11-14T19:46:28.824Z,52.05
2017-11-14T19:48:56.597Z,49.05
2017-11-14T19:51:24.393Z,44.72
2017-11-14T19:53:52.184Z,45.15
2017-11-14T19:56:20.731Z,46.85
2017-11-14T19:58:48.554Z,50.92
2017-11-14T20:01:16.323Z,43.70
2017-11-14T20:03:44.123Z,42.75
2017-11-14T20:06:11.987Z,40.33
2017-11-14T20:08:39.768Z,41.67
2017-11-14T20:11:07.538Z,38.30
2017-11-14T20:13:36.111Z,44.00
2017-11-14T20:16:03.871Z,42.13
2017-11-14T20:18:32.270Z,40.85
2017-11-14T20:21:00.878Z,39.13
2017-11-14T20:23:28.652Z,41.10
2017-11-14T20:28:39.360Z,36.60
2017-11-14T20:31:07.128Z,38.47
2017-11-14T20:33:34.895Z,36.63
2017-11-14T20:36:02.696Z,38.97
2017-11-14T20:38:30.452Z,36.28
2017-11-14T20:40:58.219Z,36.00
2017-11-14T20:43:26.013Z,35.85
2017-11-14T20:45:53.792Z,36.38
2017-11-14T20:48:21.551Z,33.22
2017-11-14T20:50:49.351Z,30.33
2017-11-14T20:53:17.111Z,33.22
2017-11-14T20:55:45.755Z,31.45
2017-11-14T20:58:13.629Z,32.13
2017-11-14T21:00:41.390Z,32.08
2017-11-14T21:03:09.178Z,33.10
2017-11-14T21:05:38.522Z,28.62
2017-11-14T21:08:06.311Z,30.33
2017-11-14T21:10:34.092Z,29.33
2017-11-14T21:13:02.647Z,26.83
2017-11-14T21:15:31.084Z,27.60
2017-11-14T21:17:59.354Z,30.08
2017-11-14T21:20:27.481Z,27.85
2017-11-14T21:22:56.035Z,27.50
2017-11-14T21:25:23.913Z,26.52
2017-11-14T21:27:51.779Z,26.15
2017-11-14T21:30:19.640Z,29.23
2017-11-14T21:32:47.391Z,32.42
2017-11-14T21:35:15.183Z,44.10
2017-11-14T21:37:42.945Z,55.17
2017-11-14T21:40:10.701Z,40.12
2017-11-14T21:42:38.498Z,39.00
2017-11-14T21:45:06.256Z,37.10
2017-11-14T21:47:34.025Z,31.80
2017-11-14T21:50:01.935Z,38.05
2017-11-14T21:52:29.708Z,29.15
2017-11-14T21:54:57.561Z,27.58
2017-11-14T21:57:25.469Z,28.20
2017-11-14T21:59:53.988Z,26.45
2017-11-14T22:02:21.933Z,27.25
2017-11-14T22:04:49.764Z,24.27
2017-11-14T22:07:18.316Z,25.08
2017-11-14T22:09:46.696Z,22.45
2017-11-14T22:12:15.373Z,22.45
2017-11-14T22:14:43.131Z,24.90
2017-11-14T22:17:10.917Z,20.70
2017-11-14T22:19:38.846Z,23.17
2017-11-14T22:22:06.625Z,22.60
2017-11-14T22:24:34.487Z,21.70
2017-11-14T22:27:03.092Z,21.90
2017-11-14T22:29:32.471Z,19.27
2017-11-14T22:32:00.445Z,21.30
2017-11-14T22:34:29.119Z,22.55
2017-11-14T22:36:56.980Z,22.77
2017-11-14T22:39:25.666Z,21.15
2017-11-14T22:41:53.511Z,20.15
2017-11-14T22:44:21.805Z,22.00
2017-11-14T22:49:26.338Z,21.00
2017-11-14T22:51:54.204Z,20.98
2017-11-14T22:54:22.988Z,20.33
2017-11-14T22:56:50.852Z,21.77
2017-11-14T22:59:18.920Z,21.62
2017-11-14T23:01:47.202Z,21.10
2017-11-14T23:04:16.933Z,21.05
2017-11-14T23:06:44.770Z,20.80
2017-11-14T23:09:12.525Z,18.75
2017-11-14T23:11:40.381Z,19.00
2017-11-14T23:14:08.137Z,19.85
2017-11-14T23:16:36.015Z,23.08
2017-11-14T23:19:03.804Z,19.67
2017-11-14T23:21:32.359Z,19.15
2017-11-14T23:24:00.839Z,18.90
2017-11-14T23:26:28.704Z,18.95
2017-11-14T23:28:56.468Z,19.50
2017-11-14T23:31:24.217Z,18.87
2017-11-14T23:33:52.008Z,18.52
2017-11-14T23:36:19.765Z,18.80
2017-11-14T23:38:47.611Z,19.25
2017-11-14T23:41:15.401Z,19.60
2017-11-14T23:43:43.204Z,21.87
2017-11-14T23:46:10.983Z,21.33
2017-11-14T23:48:39.577Z,18.65
2017-11-14T23:51:07.326Z,19.42
2017-11-14T23:53:35.086Z,17.83
2017-11-14T23:56:02.884Z,18.40
2017-11-14T23:58:30.640Z,17.15
